createdAt,value
2022-08-18T00:02:14.109Z,47.42
2022-08-18T00:04:45.313Z,47.34
2022-08-18T00:07:06.861Z,47.36
2022-08-18T00:09:33.256Z,47.41
2022-08-18T00:11:59.630Z,47.36
2022-08-18T00:14:26.095Z,47.47
2022-08-18T00:16:52.517Z,47.43
2022-08-18T00:19:18.861Z,47.47
2022-08-18T00:21:45.413Z,47.44
2022-08-18T00:24:11.792Z,47.57
2022-08-18T00:26:38.175Z,47.54
2022-08-18T00:29:04.562Z,47.47
2022-08-18T00:31:30.945Z,47.44
2022-08-18T00:33:57.332Z,47.44
2022-08-18T00:36:23.714Z,47.44
2022-08-18T00:38:50.126Z,47.53
2022-08-18T00:41:16.508Z,47.40
2022-08-18T00:43:42.933Z,47.50
2022-08-18T00:46:09.310Z,47.45
2022-08-18T00:48:35.692Z,47.47
2022-08-18T00:51:02.085Z,47.49
2022-08-18T00:53:30.150Z,47.46
2022-08-18T00:55:54.905Z,47.54
2022-08-18T00:58:21.372Z,47.67
2022-08-18T01:00:47.833Z,47.52
2022-08-18T01:03:14.147Z,47.60
2022-08-18T01:05:40.534Z,47.47
2022-08-18T01:08:06.941Z,47.42
2022-08-18T01:10:33.865Z,47.50
2022-08-18T01:13:00.257Z,47.48
2022-08-18T01:15:29.443Z,47.58
2022-08-18T01:17:53.222Z,47.43
2022-08-18T01:20:19.433Z,47.47
2022-08-18T01:22:45.819Z,47.58
2022-08-18T01:25:12.199Z,47.49
2022-08-18T01:27:38.584Z,47.47
2022-08-18T01:30:04.979Z,47.45
2022-08-18T01:32:31.364Z,47.61
2022-08-18T01:34:57.746Z,47.55
2022-08-18T01:37:24.141Z,47.55
2022-08-18T01:41:01.000Z,47.54
2022-08-18T01:42:16.941Z,47.57
2022-08-18T01:44:43.401Z,47.63
2022-08-18T01:47:09.800Z,47.60
2022-08-18T01:49:36.280Z,47.63
2022-08-18T01:52:02.668Z,47.68
2022-08-18T01:54:29.134Z,47.54
2022-08-18T01:56:55.523Z,47.55
2022-08-18T01:59:21.901Z,47.57
2022-08-18T02:01:53.266Z,47.57
2022-08-18T02:04:33.728Z,47.69
2022-08-18T02:06:42.397Z,47.55
2022-08-18T02:09:07.562Z,47.42
2022-08-18T02:11:33.940Z,47.36
2022-08-18T02:14:00.325Z,47.43
2022-08-18T02:16:26.717Z,47.42
2022-08-18T02:18:53.103Z,47.41
2022-08-18T02:21:19.527Z,47.37
2022-08-18T02:23:49.204Z,47.31
2022-08-18T02:26:12.281Z,47.31
2022-08-18T02:28:38.662Z,47.22
2022-08-18T02:31:05.079Z,47.26
2022-08-18T02:33:31.454Z,47.26
2022-08-18T02:35:59.091Z,47.14
2022-08-18T02:38:24.273Z,47.16
2022-08-18T02:40:50.660Z,47.19
2022-08-18T02:43:17.052Z,47.25
2022-08-18T02:45:43.444Z,47.21
2022-08-18T02:48:09.826Z,47.27
2022-08-18T02:50:36.203Z,47.31
2022-08-18T02:53:02.591Z,47.31
2022-08-18T02:55:28.966Z,47.29
2022-08-18T02:57:55.379Z,47.22
2022-08-18T03:00:21.762Z,47.30
2022-08-18T03:02:48.150Z,47.34
2022-08-18T03:05:14.971Z,47.34
2022-08-18T03:07:40.975Z,47.45
2022-08-18T03:10:33.200Z,47.47
2022-08-18T03:12:33.772Z,47.47
2022-08-18T03:15:00.158Z,47.46
2022-08-18T03:17:26.560Z,47.47
2022-08-18T03:19:52.971Z,47.44
2022-08-18T03:22:28.601Z,47.46
2022-08-18T03:24:45.805Z,47.45
2022-08-18T03:27:12.218Z,47.49
2022-08-18T03:29:40.262Z,47.44
2022-08-18T03:32:05.004Z,47.41
2022-08-18T03:34:31.377Z,47.43
2022-08-18T03:36:57.767Z,47.46
2022-08-18T03:39:24.145Z,47.35
2022-08-18T03:41:58.536Z,47.41
2022-08-18T03:44:16.919Z,47.45
2022-08-18T03:46:43.305Z,47.46
2022-08-18T03:49:09.685Z,47.41
2022-08-18T03:51:36.074Z,47.36
2022-08-18T03:54:02.451Z,47.38
2022-08-18T03:56:28.843Z,47.32
2022-08-18T03:58:55.217Z,47.41
2022-08-18T04:01:23.746Z,47.37
2022-08-18T04:03:47.975Z,47.34
2022-08-18T04:06:14.388Z,47.33
2022-08-18T04:08:40.778Z,47.36
2022-08-18T04:11:07.160Z,47.41
2022-08-18T04:13:33.541Z,47.73
2022-08-18T04:15:59.929Z,48.46
2022-08-18T04:18:26.323Z,48.33
2022-08-18T04:20:56.267Z,48.33
2022-08-18T04:23:19.088Z,48.54
2022-08-18T04:25:45.474Z,48.78
2022-08-18T04:28:11.852Z,48.85
2022-08-18T04:30:38.231Z,48.76
2022-08-18T04:33:04.607Z,48.71
2022-08-18T04:35:30.995Z,48.70
2022-08-18T04:37:57.382Z,48.65
2022-08-18T04:40:25.299Z,48.51
2022-08-18T04:42:50.274Z,48.48
2022-08-18T04:45:16.659Z,48.43
2022-08-18T04:47:43.038Z,48.39
2022-08-18T04:50:09.424Z,48.39
2022-08-18T04:52:40.876Z,48.33
2022-08-18T04:55:02.246Z,48.25
2022-08-18T04:57:28.627Z,48.21
2022-08-18T04:59:55.007Z,48.17
2022-08-18T05:02:21.401Z,48.16
2022-08-18T05:04:47.788Z,48.25
2022-08-18T05:07:14.171Z,48.23
2022-08-18T05:09:41.068Z,48.25
2022-08-18T05:12:06.939Z,48.27
2022-08-18T05:14:33.316Z,48.35
2022-08-18T05:16:59.700Z,48.31
2022-08-18T05:19:26.795Z,48.30
2022-08-18T05:21:53.411Z,48.34
2022-08-18T05:24:19.801Z,48.31
2022-08-18T05:26:46.176Z,48.30
2022-08-18T05:29:18.047Z,48.36
2022-08-18T05:31:38.962Z,48.36
2022-08-18T05:34:05.353Z,48.40
2022-08-18T05:36:31.730Z,48.43
2022-08-18T05:38:58.117Z,48.48
2022-08-18T05:41:24.500Z,48.47
2022-08-18T05:43:51.218Z,48.50
2022-08-18T05:46:17.360Z,48.56
2022-08-18T05:48:43.917Z,48.56
2022-08-18T05:51:10.122Z,48.57
2022-08-18T05:53:36.511Z,48.65
2022-08-18T05:56:05.069Z,48.72
2022-08-18T05:58:33.835Z,48.77
2022-08-18T06:00:59.624Z,48.77
2022-08-18T06:03:24.332Z,48.88
2022-08-18T06:05:50.668Z,48.96
2022-08-18T06:08:17.057Z,49.04
2022-08-18T06:10:43.450Z,49.08
2022-08-18T06:13:09.833Z,49.10
2022-08-18T06:15:36.201Z,49.15
2022-08-18T06:18:02.587Z,49.27
2022-08-18T06:20:28.980Z,49.34
2022-08-18T06:22:55.534Z,49.48
2022-08-18T06:25:21.765Z,49.49
2022-08-18T06:27:48.213Z,49.60
2022-08-18T06:30:14.549Z,49.68
2022-08-18T06:32:41.024Z,49.70
2022-08-18T06:35:07.403Z,49.84
2022-08-18T06:37:33.801Z,49.71
2022-08-18T06:40:00.268Z,49.80
2022-08-18T06:42:26.575Z,50.01
2022-08-18T06:44:53.005Z,49.92
2022-08-18T06:47:19.390Z,50.01
2022-08-18T06:49:45.804Z,50.04
2022-08-18T06:52:12.190Z,50.08
2022-08-18T06:54:38.579Z,50.25
2022-08-18T06:57:04.964Z,50.04
2022-08-18T06:59:31.406Z,50.09
2022-08-18T07:01:57.783Z,50.10
2022-08-18T07:04:24.165Z,50.27
2022-08-18T07:06:50.560Z,50.25
2022-08-18T07:09:17.105Z,50.47
2022-08-18T07:11:43.493Z,50.50
2022-08-18T07:14:16.661Z,50.46
2022-08-18T07:16:57.168Z,50.34
2022-08-18T07:19:02.658Z,50.42
2022-08-18T07:21:29.042Z,50.46
2022-08-18T07:24:21.067Z,50.67
2022-08-18T07:26:21.847Z,50.75
2022-08-18T07:28:48.334Z,50.68
2022-08-18T07:31:17.311Z,50.72
2022-08-18T07:33:41.105Z,50.71
2022-08-18T07:36:07.496Z,50.79
2022-08-18T07:38:49.433Z,50.83
2022-08-18T07:41:00.407Z,51.04
2022-08-18T07:43:26.786Z,51.06
2022-08-18T07:45:53.242Z,51.25
2022-08-18T07:48:38.738Z,51.15
2022-08-18T07:50:58.247Z,51.17
2022-08-18T07:53:12.389Z,51.23
2022-08-18T07:55:38.782Z,51.21
2022-08-18T07:58:05.179Z,51.06
2022-08-18T08:02:58.124Z,51.11
2022-08-18T08:05:24.516Z,51.17
2022-08-18T08:07:51.038Z,51.15
2022-08-18T08:10:17.319Z,51.12
2022-08-18T08:12:43.713Z,51.20
2022-08-18T08:15:10.192Z,51.14
2022-08-18T08:17:36.634Z,51.08
2022-08-18T08:20:03.088Z,51.24
2022-08-18T08:22:29.450Z,51.15
2022-08-18T08:24:55.841Z,51.13
2022-08-18T08:27:22.274Z,51.21
2022-08-18T08:29:48.808Z,51.36
2022-08-18T08:32:15.182Z,51.41
2022-08-18T08:34:41.573Z,51.44
2022-08-18T08:37:08.090Z,51.47
2022-08-18T08:39:34.712Z,51.66
2022-08-18T08:42:31.713Z,51.63
2022-08-18T08:44:27.488Z,51.64
2022-08-18T08:46:53.892Z,51.54
2022-08-18T08:49:20.354Z,51.46
2022-08-18T08:51:46.750Z,51.46
2022-08-18T08:54:13.168Z,51.61
2022-08-18T08:56:40.832Z,51.57
2022-08-18T08:59:06.053Z,51.54
2022-08-18T09:01:32.522Z,51.33
2022-08-18T09:03:58.824Z,51.39
2022-08-18T09:06:25.206Z,51.48
2022-08-18T09:08:51.616Z,51.62
2022-08-18T09:11:18.020Z,51.50
2022-08-18T09:13:44.407Z,51.53
2022-08-18T09:16:12.349Z,51.44
2022-08-18T09:18:37.186Z,51.27
2022-08-18T09:21:03.590Z,51.37
2022-08-18T09:23:29.975Z,51.37
2022-08-18T09:25:56.366Z,51.38
2022-08-18T09:28:22.777Z,51.35
2022-08-18T09:30:51.448Z,51.37
2022-08-18T09:33:18.845Z,51.28
2022-08-18T09:35:41.995Z,51.22
2022-08-18T09:38:08.380Z,51.17
2022-08-18T09:43:02.058Z,51.15
2022-08-18T09:45:31.097Z,51.12
2022-08-18T09:47:54.139Z,51.06
2022-08-18T09:52:47.009Z,51.07
2022-08-18T09:55:13.414Z,50.94
2022-08-18T09:57:42.283Z,50.97
2022-08-18T10:00:07.332Z,50.85
2022-08-18T10:02:32.715Z,50.92
2022-08-18T10:04:59.110Z,50.75
2022-08-18T10:07:25.495Z,50.74
2022-08-18T10:09:51.876Z,50.82
2022-08-18T10:12:18.291Z,50.83
2022-08-18T10:14:45.137Z,50.91
2022-08-18T10:17:23.843Z,50.87
2022-08-18T10:19:39.432Z,50.95
2022-08-18T10:22:03.933Z,50.87
2022-08-18T10:24:36.378Z,50.94
2022-08-18T10:26:56.708Z,50.92
2022-08-18T10:29:23.110Z,50.99
2022-08-18T10:31:49.499Z,51.01
2022-08-18T10:34:18.476Z,51.03
2022-08-18T10:36:42.333Z,51.08
2022-08-18T10:39:09.010Z,51.12
2022-08-18T10:41:35.507Z,50.80
2022-08-18T10:44:07.324Z,50.83
2022-08-18T10:46:31.871Z,50.72
2022-08-18T10:48:54.725Z,50.74
2022-08-18T10:53:47.817Z,50.51
2022-08-18T10:56:13.958Z,50.62
2022-08-18T10:58:40.354Z,50.67
2022-08-18T11:01:07.939Z,50.62
2022-08-18T11:05:59.524Z,50.58
2022-08-18T11:08:25.912Z,50.72
2022-08-18T11:11:33.053Z,50.79
2022-08-18T11:13:18.810Z,50.75
2022-08-18T11:15:45.216Z,50.61
2022-08-18T11:18:11.601Z,50.65
2022-08-18T11:20:38.021Z,50.67
2022-08-18T11:23:04.430Z,50.84
2022-08-18T11:25:30.815Z,50.84
2022-08-18T11:27:57.234Z,50.88
2022-08-18T11:30:31.060Z,50.74
2022-08-18T11:32:51.988Z,50.51
2022-08-18T11:35:16.596Z,50.66
2022-08-18T11:37:51.670Z,50.71
2022-08-18T11:40:09.791Z,50.47
2022-08-18T11:42:35.904Z,50.55
2022-08-18T11:45:02.305Z,50.49
2022-08-18T11:47:30.015Z,50.40
2022-08-18T11:49:55.134Z,50.40
2022-08-18T11:52:26.224Z,50.35
2022-08-18T11:54:50.550Z,50.37
2022-08-18T11:57:14.302Z,50.36
2022-08-18T11:59:54.742Z,50.35
2022-08-18T12:02:07.105Z,50.37
2022-08-18T12:04:33.488Z,50.24
2022-08-18T12:06:59.896Z,50.18
2022-08-18T12:11:52.796Z,50.38
2022-08-18T12:14:30.456Z,50.26
2022-08-18T12:16:46.378Z,50.25
2022-08-18T12:19:12.204Z,50.28
2022-08-18T12:21:38.420Z,50.15
2022-08-18T12:24:04.831Z,50.11
2022-08-18T12:26:38.566Z,50.09
2022-08-18T12:29:01.215Z,49.99
2022-08-18T12:31:29.136Z,50.08
2022-08-18T12:34:00.188Z,49.95
2022-08-18T12:36:16.769Z,50.02
2022-08-18T12:38:43.187Z,50.04
2022-08-18T12:41:11.984Z,49.99
2022-08-18T12:43:38.363Z,50.03
2022-08-18T12:46:04.775Z,49.95
2022-08-18T12:48:31.345Z,49.81
2022-08-18T12:50:59.892Z,49.86
2022-08-18T12:53:29.920Z,49.56
2022-08-18T12:55:50.510Z,49.60
2022-08-18T12:58:16.947Z,49.50
2022-08-18T13:00:43.440Z,49.46
2022-08-18T13:03:09.815Z,49.57
2022-08-18T13:05:36.211Z,49.67
2022-08-18T13:08:04.506Z,49.61
2022-08-18T13:10:43.079Z,49.73
2022-08-18T13:12:55.395Z,49.64
2022-08-18T13:15:21.778Z,49.73
2022-08-18T13:17:48.229Z,49.79
2022-08-18T13:20:14.579Z,49.75
2022-08-18T13:22:40.998Z,49.90
2022-08-18T13:25:07.551Z,49.77
2022-08-18T13:27:35.963Z,49.67
2022-08-18T13:30:00.230Z,49.56
2022-08-18T13:32:26.560Z,49.56
2022-08-18T13:34:52.969Z,49.45
2022-08-18T13:37:20.478Z,49.53
2022-08-18T13:39:45.848Z,49.44
2022-08-18T13:42:26.809Z,49.35
2022-08-18T13:44:38.599Z,49.32
2022-08-18T13:47:04.987Z,49.36
2022-08-18T13:49:31.399Z,49.32
2022-08-18T13:51:57.790Z,49.36
2022-08-18T13:54:31.334Z,49.32
2022-08-18T13:56:51.762Z,49.45
2022-08-18T13:59:16.969Z,49.07
2022-08-18T14:01:51.302Z,49.29
2022-08-18T14:04:12.357Z,49.19
2022-08-18T14:06:36.241Z,49.30
2022-08-18T14:09:02.725Z,49.18
2022-08-18T14:11:32.834Z,49.17
2022-08-18T14:13:55.538Z,49.07
2022-08-18T14:16:22.017Z,49.21
2022-08-18T14:18:48.403Z,49.18
2022-08-18T14:21:14.807Z,49.25
2022-08-18T14:23:51.500Z,49.29
2022-08-18T14:26:07.633Z,49.25
2022-08-18T14:28:34.005Z,49.28
2022-08-18T14:31:00.388Z,49.23
2022-08-18T14:33:34.186Z,49.14
2022-08-18T14:36:05.847Z,49.01
2022-08-18T14:38:19.641Z,49.09
2022-08-18T14:40:46.017Z,49.04
2022-08-18T14:43:14.290Z,48.92
2022-08-18T14:45:38.836Z,49.04
2022-08-18T14:48:06.679Z,48.95
2022-08-18T14:50:31.589Z,48.96
2022-08-18T14:52:58.029Z,49.01
2022-08-18T14:55:24.421Z,48.95
2022-08-18T14:57:50.863Z,48.99
2022-08-18T15:00:17.189Z,48.79
2022-08-18T15:02:43.577Z,48.73
2022-08-18T15:05:19.458Z,48.76
2022-08-18T15:07:36.482Z,48.54
2022-08-18T15:10:15.338Z,48.49
2022-08-18T15:12:29.310Z,48.34
2022-08-18T15:14:55.830Z,48.35
2022-08-18T15:17:22.329Z,48.35
2022-08-18T15:20:00.132Z,48.39
2022-08-18T15:22:15.901Z,48.42
2022-08-18T15:24:41.487Z,48.37
2022-08-18T15:27:10.245Z,48.34
2022-08-18T15:29:34.258Z,48.37
2022-08-18T15:32:05.617Z,48.46
2022-08-18T15:34:27.571Z,48.47
2022-08-18T15:36:53.444Z,48.54
2022-08-18T15:39:19.857Z,48.51
2022-08-18T15:41:46.304Z,48.50
2022-08-18T15:44:12.680Z,48.50
2022-08-18T15:46:39.077Z,48.51
2022-08-18T15:49:05.465Z,48.56
2022-08-18T15:51:41.228Z,48.52
2022-08-18T15:53:58.265Z,48.56
2022-08-18T15:56:26.023Z,48.47
2022-08-18T15:58:51.034Z,48.37
2022-08-18T16:01:29.889Z,48.17
2022-08-18T16:03:43.835Z,48.15
2022-08-18T16:06:10.219Z,48.14
2022-08-18T16:08:36.681Z,48.12
2022-08-18T16:11:03.049Z,48.25
2022-08-18T16:13:29.429Z,48.15
2022-08-18T16:15:55.822Z,48.28
2022-08-18T16:18:22.207Z,48.21
2022-08-18T16:20:48.626Z,48.27
2022-08-18T16:23:14.982Z,48.36
2022-08-18T16:25:41.363Z,48.36
2022-08-18T16:28:07.749Z,48.32
2022-08-18T16:30:34.128Z,48.40
2022-08-18T16:33:00.514Z,48.37
2022-08-18T16:35:26.893Z,48.40
2022-08-18T16:37:53.533Z,48.36
2022-08-18T16:40:19.684Z,48.27
2022-08-18T16:42:46.070Z,48.22
2022-08-18T16:45:13.398Z,48.22
2022-08-18T16:47:38.836Z,48.14
2022-08-18T16:50:05.219Z,48.03
2022-08-18T16:52:31.621Z,47.97
2022-08-18T16:54:58.286Z,47.84
2022-08-18T16:57:24.405Z,47.76
2022-08-18T16:59:50.800Z,47.75
2022-08-18T17:02:17.184Z,47.84
2022-08-18T17:04:43.562Z,47.83
2022-08-18T17:07:10.020Z,47.83
2022-08-18T17:09:36.402Z,47.82
2022-08-18T17:12:02.782Z,47.78
2022-08-18T17:14:29.171Z,47.79
2022-08-18T17:16:55.551Z,47.69
2022-08-18T17:19:21.938Z,47.62
2022-08-18T17:21:48.316Z,47.67
2022-08-18T17:24:14.726Z,47.68
2022-08-18T17:26:41.261Z,47.58
2022-08-18T17:29:07.495Z,47.60
2022-08-18T17:31:33.884Z,47.59
2022-08-18T17:34:00.280Z,47.66
2022-08-18T17:36:26.659Z,47.71
2022-08-18T17:38:53.039Z,47.75
2022-08-18T17:41:19.426Z,47.78
2022-08-18T17:46:12.187Z,47.79
2022-08-18T17:48:38.648Z,47.79
2022-08-18T17:51:05.049Z,47.69
2022-08-18T17:53:31.422Z,47.64
2022-08-18T17:55:57.800Z,47.61
2022-08-18T17:58:24.190Z,47.68
2022-08-18T18:00:50.575Z,47.66
2022-08-18T18:03:16.956Z,47.64
2022-08-18T18:05:43.328Z,47.60
2022-08-18T18:08:09.718Z,47.30
2022-08-18T18:10:43.073Z,47.19
2022-08-18T18:13:04.778Z,47.12
2022-08-18T18:15:31.183Z,47.16
2022-08-18T18:17:57.563Z,47.09
2022-08-18T18:20:23.957Z,47.05
2022-08-18T18:22:50.343Z,47.03
2022-08-18T18:25:16.716Z,47.05
2022-08-18T18:27:43.222Z,47.05
2022-08-18T18:30:09.640Z,47.05
2022-08-18T18:32:36.018Z,47.02
2022-08-18T18:35:02.406Z,47.02
2022-08-18T18:37:28.785Z,46.97
2022-08-18T18:39:55.223Z,46.97
2022-08-18T18:42:21.576Z,46.90
2022-08-18T18:44:47.979Z,46.90
2022-08-18T18:47:14.383Z,46.87
2022-08-18T18:49:40.768Z,46.88
2022-08-18T18:52:07.153Z,46.88
2022-08-18T18:54:33.544Z,46.89
2022-08-18T18:57:00.014Z,46.91
2022-08-18T18:59:26.398Z,46.88
2022-08-18T19:01:52.785Z,46.86
2022-08-18T19:04:19.166Z,46.84
2022-08-18T19:06:45.546Z,46.83
2022-08-18T19:09:11.943Z,46.79
2022-08-18T19:11:38.330Z,46.78
2022-08-18T19:14:07.603Z,46.78
2022-08-18T19:16:31.099Z,46.75
2022-08-18T19:19:35.477Z,46.73
2022-08-18T19:22:03.153Z,46.72
2022-08-18T19:23:50.309Z,46.69
2022-08-18T19:26:16.703Z,46.68
2022-08-18T19:29:12.733Z,46.68
2022-08-18T19:31:09.487Z,46.64
2022-08-18T19:33:35.877Z,46.68
2022-08-18T19:36:02.760Z,46.69
2022-08-18T19:38:29.933Z,46.71
2022-08-18T19:40:55.100Z,46.74
2022-08-18T19:43:21.488Z,46.74
2022-08-18T19:45:47.870Z,46.72
2022-08-18T19:48:18.145Z,46.68
2022-08-18T19:50:41.000Z,46.69
2022-08-18T19:53:07.386Z,46.70
2022-08-18T19:55:33.772Z,46.72
2022-08-18T19:58:00.154Z,46.73
2022-08-18T20:00:26.538Z,46.75
2022-08-18T20:02:53.086Z,46.75
2022-08-18T20:05:19.303Z,46.79
2022-08-18T20:07:46.813Z,46.81
2022-08-18T20:10:12.075Z,46.79
2022-08-18T20:12:38.454Z,46.78
2022-08-18T20:15:04.835Z,46.77
2022-08-18T20:17:31.209Z,46.77
2022-08-18T20:19:57.760Z,46.82
2022-08-18T20:22:24.711Z,46.78
2022-08-18T20:24:50.538Z,46.78
2022-08-18T20:27:16.922Z,46.82
2022-08-18T20:29:43.356Z,46.77
2022-08-18T20:32:09.762Z,46.80
2022-08-18T20:34:37.576Z,46.78
2022-08-18T20:37:02.551Z,46.79
2022-08-18T20:39:29.027Z,46.82
2022-08-18T20:41:55.434Z,46.83
2022-08-18T20:44:28.754Z,46.80
2022-08-18T20:46:48.242Z,46.80
2022-08-18T20:49:14.627Z,46.81
2022-08-18T20:51:41.017Z,46.78
2022-08-18T20:54:13.454Z,46.80
2022-08-18T20:56:43.153Z,46.72
2022-08-18T20:59:00.171Z,46.78
2022-08-18T21:01:26.596Z,46.77
2022-08-18T21:03:52.953Z,46.81
2022-08-18T21:06:19.321Z,46.80
2022-08-18T21:08:45.798Z,46.84
2022-08-18T21:11:12.176Z,46.83
2022-08-18T21:13:38.564Z,46.81
2022-08-18T21:16:04.948Z,46.83
2022-08-18T21:18:31.327Z,46.84
2022-08-18T21:20:57.738Z,46.80
2022-08-18T21:23:24.128Z,46.79
2022-08-18T21:25:50.510Z,46.80
2022-08-18T21:28:18.610Z,46.83
2022-08-18T21:30:43.285Z,46.80
2022-08-18T21:33:09.667Z,46.83
2022-08-18T21:35:36.052Z,46.83
2022-08-18T21:38:02.439Z,46.79
2022-08-18T21:40:29.914Z,46.78
2022-08-18T21:42:55.333Z,46.82
2022-08-18T21:45:21.721Z,46.83
2022-08-18T21:47:48.100Z,46.77
2022-08-18T21:50:14.487Z,46.78
2022-08-18T21:52:40.873Z,46.79
2022-08-18T21:55:07.299Z,46.77
2022-08-18T21:57:33.728Z,46.75
2022-08-18T22:00:00.125Z,46.73
2022-08-18T22:02:26.527Z,46.77
2022-08-18T22:04:52.924Z,46.76
2022-08-18T22:07:34.704Z,46.75
2022-08-18T22:09:45.698Z,46.70
2022-08-18T22:12:12.172Z,46.72
2022-08-18T22:14:53.667Z,46.72
2022-08-18T22:17:06.368Z,46.74
2022-08-18T22:19:31.423Z,46.72
2022-08-18T22:21:57.812Z,46.72
2022-08-18T22:24:24.299Z,46.71
2022-08-18T22:26:50.679Z,46.66
2022-08-18T22:29:17.061Z,46.67
2022-08-18T22:31:43.491Z,46.69
2022-08-18T22:34:09.876Z,46.70
2022-08-18T22:36:36.266Z,46.70
2022-08-18T22:39:02.651Z,46.71
2022-08-18T22:41:29.039Z,46.72
2022-08-18T22:43:55.609Z,46.71
2022-08-18T22:46:24.395Z,46.72
2022-08-18T22:48:48.213Z,46.75
2022-08-18T22:51:14.613Z,46.69
2022-08-18T22:53:41.001Z,46.71
2022-08-18T22:56:07.389Z,46.79
2022-08-18T22:58:33.769Z,46.80
2022-08-18T23:01:01.078Z,46.83
2022-08-18T23:03:26.586Z,46.85
2022-08-18T23:05:52.918Z,46.89
2022-08-18T23:08:19.313Z,46.86
2022-08-18T23:10:45.713Z,46.84
2022-08-18T23:13:12.093Z,46.92
2022-08-18T23:15:38.478Z,46.86
2022-08-18T23:18:04.909Z,46.96
2022-08-18T23:20:31.302Z,46.95
2022-08-18T23:22:57.676Z,46.93
2022-08-18T23:25:24.086Z,46.95
2022-08-18T23:27:53.401Z,46.93
2022-08-18T23:30:19.809Z,46.91
2022-08-18T23:32:46.285Z,46.92
2022-08-18T23:35:12.570Z,47.04
2022-08-18T23:37:38.949Z,46.98
2022-08-18T23:40:05.422Z,46.99
2022-08-18T23:42:31.749Z,47.01
2022-08-18T23:44:58.128Z,47.03
2022-08-18T23:47:24.530Z,47.01
2022-08-18T23:49:50.913Z,47.06
2022-08-18T23:52:17.310Z,47.04
2022-08-18T23:54:43.689Z,47.01
2022-08-18T23:57:10.086Z,47.07
2022-08-18T23:59:36.465Z,47.05
